sensor_id;sensor_type;location;lat;lon;timestamp;temperature;humidity
360;DHT22;168;48.872;9.226;2024-02-23T00:01:12;7.80;93.50
360;DHT22;168;48.872;9.226;2024-02-23T00:03:39;7.80;94.00
360;DHT22;168;48.872;9.226;2024-02-23T00:06:07;7.80;94.10
360;DHT22;168;48.872;9.226;2024-02-23T00:08:36;7.90;93.70
360;DHT22;168;48.872;9.226;2024-02-23T00:11:03;7.90;94.20
360;DHT22;168;48.872;9.226;2024-02-23T00:13:31;8.00;94.30
360;DHT22;168;48.872;9.226;2024-02-23T00:15:59;8.10;93.00
360;DHT22;168;48.872;9.226;2024-02-23T00:18:26;8.00;93.80
360;DHT22;168;48.872;9.226;2024-02-23T00:20:53;8.10;93.50
360;DHT22;168;48.872;9.226;2024-02-23T00:23:22;8.10;93.70
360;DHT22;168;48.872;9.226;2024-02-23T00:25:51;8.10;93.70
360;DHT22;168;48.872;9.226;2024-02-23T00:28:18;8.20;93.40
360;DHT22;168;48.872;9.226;2024-02-23T00:30:46;8.20;93.40
360;DHT22;168;48.872;9.226;2024-02-23T00:33:13;8.20;93.50
360;DHT22;168;48.872;9.226;2024-02-23T00:35:40;8.20;94.10
360;DHT22;168;48.872;9.226;2024-02-23T00:38:08;8.20;94.20
360;DHT22;168;48.872;9.226;2024-02-23T00:40:35;8.20;93.70
360;DHT22;168;48.872;9.226;2024-02-23T00:43:04;8.20;93.50
360;DHT22;168;48.872;9.226;2024-02-23T00:45:31;8.20;93.10
360;DHT22;168;48.872;9.226;2024-02-23T00:47:59;8.20;93.10
360;DHT22;168;48.872;9.226;2024-02-23T00:50:26;8.20;92.80
360;DHT22;168;48.872;9.226;2024-02-23T00:52:53;8.30;92.00
360;DHT22;168;48.872;9.226;2024-02-23T00:55:21;8.20;91.20
360;DHT22;168;48.872;9.226;2024-02-23T00:57:48;8.10;91.90
360;DHT22;168;48.872;9.226;2024-02-23T01:00:17;8.10;90.70
360;DHT22;168;48.872;9.226;2024-02-23T01:02:45;8.00;91.40
360;DHT22;168;48.872;9.226;2024-02-23T01:05:12;8.00;89.90
360;DHT22;168;48.872;9.226;2024-02-23T01:07:40;8.00;90.40
360;DHT22;168;48.872;9.226;2024-02-23T01:10:07;8.00;90.30
360;DHT22;168;48.872;9.226;2024-02-23T01:12:35;8.00;90.00
360;DHT22;168;48.872;9.226;2024-02-23T01:15:03;8.00;89.60
360;DHT22;168;48.872;9.226;2024-02-23T01:17:32;8.00;89.40
360;DHT22;168;48.872;9.226;2024-02-23T01:19:59;8.00;90.00
360;DHT22;168;48.872;9.226;2024-02-23T01:22:26;8.10;89.40
360;DHT22;168;48.872;9.226;2024-02-23T01:24:54;8.10;89.40
360;DHT22;168;48.872;9.226;2024-02-23T01:27:21;8.10;89.50
360;DHT22;168;48.872;9.226;2024-02-23T01:29:49;8.20;88.80
360;DHT22;168;48.872;9.226;2024-02-23T01:32:16;8.20;89.50
360;DHT22;168;48.872;9.226;2024-02-23T01:34:45;8.10;89.40
360;DHT22;168;48.872;9.226;2024-02-23T01:37:12;8.20;88.80
360;DHT22;168;48.872;9.226;2024-02-23T01:39:39;8.20;88.50
360;DHT22;168;48.872;9.226;2024-02-23T01:42:07;8.30;88.50
360;DHT22;168;48.872;9.226;2024-02-23T01:44:35;8.20;89.80
360;DHT22;168;48.872;9.226;2024-02-23T01:47:02;8.20;90.10
360;DHT22;168;48.872;9.226;2024-02-23T01:49:30;8.20;90.50
360;DHT22;168;48.872;9.226;2024-02-23T01:52:01;8.20;90.80
360;DHT22;168;48.872;9.226;2024-02-23T01:54:29;8.20;92.00
360;DHT22;168;48.872;9.226;2024-02-23T01:56:58;8.40;91.60
360;DHT22;168;48.872;9.226;2024-02-23T01:59:25;8.40;91.60
360;DHT22;168;48.872;9.226;2024-02-23T02:01:53;8.30;91.90
360;DHT22;168;48.872;9.226;2024-02-23T02:04:20;8.40;91.90
360;DHT22;168;48.872;9.226;2024-02-23T02:06:48;8.40;91.70
360;DHT22;168;48.872;9.226;2024-02-23T02:09:16;8.40;92.20
360;DHT22;168;48.872;9.226;2024-02-23T02:11:47;8.40;91.70
360;DHT22;168;48.872;9.226;2024-02-23T02:14:15;8.50;91.60
360;DHT22;168;48.872;9.226;2024-02-23T02:16:42;8.60;91.60
360;DHT22;168;48.872;9.226;2024-02-23T02:19:10;8.60;91.30
360;DHT22;168;48.872;9.226;2024-02-23T02:21:38;8.50;91.80
360;DHT22;168;48.872;9.226;2024-02-23T02:24:06;8.50;91.50
360;DHT22;168;48.872;9.226;2024-02-23T02:26:37;8.40;92.20
360;DHT22;168;48.872;9.226;2024-02-23T02:29:04;8.50;91.80
360;DHT22;168;48.872;9.226;2024-02-23T02:31:31;8.40;91.90
360;DHT22;168;48.872;9.226;2024-02-23T02:34:03;8.60;92.00
360;DHT22;168;48.872;9.226;2024-02-23T02:36:30;8.60;91.60
360;DHT22;168;48.872;9.226;2024-02-23T02:38:58;8.60;91.70
360;DHT22;168;48.872;9.226;2024-02-23T02:41:28;8.50;91.50
360;DHT22;168;48.872;9.226;2024-02-23T02:43:57;8.40;92.10
360;DHT22;168;48.872;9.226;2024-02-23T02:46:25;8.40;92.10
360;DHT22;168;48.872;9.226;2024-02-23T02:48:52;8.20;92.20
360;DHT22;168;48.872;9.226;2024-02-23T02:51:19;8.10;92.20
360;DHT22;168;48.872;9.226;2024-02-23T02:53:47;8.10;92.70
360;DHT22;168;48.872;9.226;2024-02-23T02:56:14;8.00;93.10
360;DHT22;168;48.872;9.226;2024-02-23T02:58:41;8.00;93.20
360;DHT22;168;48.872;9.226;2024-02-23T03:01:10;8.00;93.70
360;DHT22;168;48.872;9.226;2024-02-23T03:03:37;7.90;94.00
360;DHT22;168;48.872;9.226;2024-02-23T03:06:05;7.90;93.80
360;DHT22;168;48.872;9.226;2024-02-23T03:08:33;7.90;94.00
360;DHT22;168;48.872;9.226;2024-02-23T03:11:00;7.90;93.90
360;DHT22;168;48.872;9.226;2024-02-23T03:13:28;7.80;94.40
360;DHT22;168;48.872;9.226;2024-02-23T03:15:57;7.80;94.60
360;DHT22;168;48.872;9.226;2024-02-23T03:18:26;7.80;94.50
360;DHT22;168;48.872;9.226;2024-02-23T03:20:54;7.80;94.50
360;DHT22;168;48.872;9.226;2024-02-23T03:23:21;7.80;94.50
360;DHT22;168;48.872;9.226;2024-02-23T03:25:49;7.90;94.40
360;DHT22;168;48.872;9.226;2024-02-23T03:28:16;7.90;94.20
360;DHT22;168;48.872;9.226;2024-02-23T03:30:43;7.80;94.50
360;DHT22;168;48.872;9.226;2024-02-23T03:33:11;7.80;94.80
360;DHT22;168;48.872;9.226;2024-02-23T03:35:39;7.80;94.20
360;DHT22;168;48.872;9.226;2024-02-23T03:38:07;7.90;92.80
360;DHT22;168;48.872;9.226;2024-02-23T03:40:34;7.90;92.00
360;DHT22;168;48.872;9.226;2024-02-23T03:43:02;7.90;91.70
360;DHT22;168;48.872;9.226;2024-02-23T03:45:29;7.90;91.40
360;DHT22;168;48.872;9.226;2024-02-23T03:47:57;7.90;90.60
360;DHT22;168;48.872;9.226;2024-02-23T03:50:25;7.90;90.20
360;DHT22;168;48.872;9.226;2024-02-23T03:52:54;7.90;90.00
360;DHT22;168;48.872;9.226;2024-02-23T03:55:21;7.90;88.00
360;DHT22;168;48.872;9.226;2024-02-23T03:57:48;7.90;87.40
360;DHT22;168;48.872;9.226;2024-02-23T04:00:17;7.80;87.70
360;DHT22;168;48.872;9.226;2024-02-23T04:02:45;7.80;88.00
360;DHT22;168;48.872;9.226;2024-02-23T04:05:12;7.70;88.30
360;DHT22;168;48.872;9.226;2024-02-23T04:07:40;7.80;87.80
360;DHT22;168;48.872;9.226;2024-02-23T04:10:09;7.80;87.10
360;DHT22;168;48.872;9.226;2024-02-23T04:12:36;7.60;86.30
360;DHT22;168;48.872;9.226;2024-02-23T04:15:04;7.50;86.70
360;DHT22;168;48.872;9.226;2024-02-23T04:17:32;7.60;86.60
360;DHT22;168;48.872;9.226;2024-02-23T04:20:00;7.60;86.40
360;DHT22;168;48.872;9.226;2024-02-23T04:22:32;7.60;85.30
360;DHT22;168;48.872;9.226;2024-02-23T04:24:59;7.60;85.10
360;DHT22;168;48.872;9.226;2024-02-23T04:27:28;7.50;85.10
360;DHT22;168;48.872;9.226;2024-02-23T04:29:55;7.40;85.30
360;DHT22;168;48.872;9.226;2024-02-23T04:32:23;7.30;85.40
360;DHT22;168;48.872;9.226;2024-02-23T04:34:50;7.40;84.90
360;DHT22;168;48.872;9.226;2024-02-23T04:37:17;7.40;84.80
360;DHT22;168;48.872;9.226;2024-02-23T04:39:45;7.40;85.40
360;DHT22;168;48.872;9.226;2024-02-23T04:42:12;7.40;85.00
360;DHT22;168;48.872;9.226;2024-02-23T04:44:42;7.50;84.10
360;DHT22;168;48.872;9.226;2024-02-23T04:47:09;7.50;83.60
360;DHT22;168;48.872;9.226;2024-02-23T04:49:37;7.50;82.70
360;DHT22;168;48.872;9.226;2024-02-23T04:52:05;7.50;84.30
360;DHT22;168;48.872;9.226;2024-02-23T04:54:33;7.40;83.20
360;DHT22;168;48.872;9.226;2024-02-23T04:57:00;7.40;83.20
360;DHT22;168;48.872;9.226;2024-02-23T04:59:28;7.40;83.30
360;DHT22;168;48.872;9.226;2024-02-23T05:01:59;7.40;84.00
360;DHT22;168;48.872;9.226;2024-02-23T05:04:26;7.40;84.50
360;DHT22;168;48.872;9.226;2024-02-23T05:06:54;7.40;84.40
360;DHT22;168;48.872;9.226;2024-02-23T05:09:21;7.30;85.00
360;DHT22;168;48.872;9.226;2024-02-23T05:11:49;7.20;85.90
360;DHT22;168;48.872;9.226;2024-02-23T05:14:16;7.30;86.40
360;DHT22;168;48.872;9.226;2024-02-23T05:16:44;7.40;85.60
360;DHT22;168;48.872;9.226;2024-02-23T05:19:12;7.30;86.10
360;DHT22;168;48.872;9.226;2024-02-23T05:21:39;7.30;87.10
360;DHT22;168;48.872;9.226;2024-02-23T05:24:07;7.30;87.50
360;DHT22;168;48.872;9.226;2024-02-23T05:26:34;7.30;85.50
360;DHT22;168;48.872;9.226;2024-02-23T05:29:01;7.40;84.00
360;DHT22;168;48.872;9.226;2024-02-23T05:31:44;7.50;84.40
360;DHT22;168;48.872;9.226;2024-02-23T05:34:13;7.40;84.10
360;DHT22;168;48.872;9.226;2024-02-23T05:36:41;7.30;84.70
360;DHT22;168;48.872;9.226;2024-02-23T05:39:09;7.40;83.90
360;DHT22;168;48.872;9.226;2024-02-23T05:41:36;7.30;84.60
360;DHT22;168;48.872;9.226;2024-02-23T05:44:04;7.30;84.10
360;DHT22;168;48.872;9.226;2024-02-23T05:46:32;7.20;85.10
360;DHT22;168;48.872;9.226;2024-02-23T05:48:59;7.20;85.10
360;DHT22;168;48.872;9.226;2024-02-23T05:51:29;7.10;85.60
360;DHT22;168;48.872;9.226;2024-02-23T05:53:56;7.20;84.90
360;DHT22;168;48.872;9.226;2024-02-23T05:56:24;7.10;85.80
360;DHT22;168;48.872;9.226;2024-02-23T05:58:52;7.10;85.90
360;DHT22;168;48.872;9.226;2024-02-23T06:01:20;7.10;85.90
360;DHT22;168;48.872;9.226;2024-02-23T06:03:47;7.00;86.70
360;DHT22;168;48.872;9.226;2024-02-23T06:06:14;7.20;85.30
360;DHT22;168;48.872;9.226;2024-02-23T06:08:43;7.10;86.00
360;DHT22;168;48.872;9.226;2024-02-23T06:11:10;7.00;86.30
360;DHT22;168;48.872;9.226;2024-02-23T06:13:38;7.00;86.50
360;DHT22;168;48.872;9.226;2024-02-23T06:16:09;7.00;86.80
360;DHT22;168;48.872;9.226;2024-02-23T06:18:37;7.00;86.30
360;DHT22;168;48.872;9.226;2024-02-23T06:21:11;7.00;86.50
360;DHT22;168;48.872;9.226;2024-02-23T06:23:39;7.00;86.10
360;DHT22;168;48.872;9.226;2024-02-23T06:26:08;7.10;85.50
360;DHT22;168;48.872;9.226;2024-02-23T06:28:36;7.10;85.50
360;DHT22;168;48.872;9.226;2024-02-23T06:31:05;7.10;85.80
360;DHT22;168;48.872;9.226;2024-02-23T06:33:32;6.90;86.50
360;DHT22;168;48.872;9.226;2024-02-23T06:36:00;6.90;87.40
360;DHT22;168;48.872;9.226;2024-02-23T06:38:29;6.80;87.80
360;DHT22;168;48.872;9.226;2024-02-23T06:40:56;6.90;87.70
360;DHT22;168;48.872;9.226;2024-02-23T06:43:25;6.80;88.00
360;DHT22;168;48.872;9.226;2024-02-23T06:45:52;6.70;88.30
360;DHT22;168;48.872;9.226;2024-02-23T06:48:19;6.80;88.90
360;DHT22;168;48.872;9.226;2024-02-23T06:50:47;6.80;88.80
360;DHT22;168;48.872;9.226;2024-02-23T06:53:14;6.80;89.10
360;DHT22;168;48.872;9.226;2024-02-23T06:55:41;6.80;89.60
360;DHT22;168;48.872;9.226;2024-02-23T06:58:09;6.80;89.90
360;DHT22;168;48.872;9.226;2024-02-23T07:00:37;6.90;90.20
360;DHT22;168;48.872;9.226;2024-02-23T07:03:05;7.00;90.00
360;DHT22;168;48.872;9.226;2024-02-23T07:05:32;7.00;90.50
360;DHT22;168;48.872;9.226;2024-02-23T07:08:01;7.10;90.90
360;DHT22;168;48.872;9.226;2024-02-23T07:10:28;7.10;91.40
360;DHT22;168;48.872;9.226;2024-02-23T07:12:56;7.20;91.50
360;DHT22;168;48.872;9.226;2024-02-23T07:15:24;7.20;91.80
360;DHT22;168;48.872;9.226;2024-02-23T07:17:53;7.20;92.40
360;DHT22;168;48.872;9.226;2024-02-23T07:20:20;7.30;92.40
360;DHT22;168;48.872;9.226;2024-02-23T07:22:47;7.30;92.90
360;DHT22;168;48.872;9.226;2024-02-23T07:25:16;7.40;92.70
360;DHT22;168;48.872;9.226;2024-02-23T07:27:43;7.50;92.80
360;DHT22;168;48.872;9.226;2024-02-23T07:30:11;7.50;92.80
360;DHT22;168;48.872;9.226;2024-02-23T07:32:39;7.60;92.90
360;DHT22;168;48.872;9.226;2024-02-23T07:35:09;7.60;93.00
360;DHT22;168;48.872;9.226;2024-02-23T07:37:36;7.70;93.00
360;DHT22;168;48.872;9.226;2024-02-23T07:40:04;7.70;93.00
360;DHT22;168;48.872;9.226;2024-02-23T07:42:32;7.80;92.80
360;DHT22;168;48.872;9.226;2024-02-23T07:45:02;7.90;92.20
360;DHT22;168;48.872;9.226;2024-02-23T07:47:30;7.90;91.00
360;DHT22;168;48.872;9.226;2024-02-23T07:49:58;7.90;91.10
360;DHT22;168;48.872;9.226;2024-02-23T07:52:27;7.90;91.20
360;DHT22;168;48.872;9.226;2024-02-23T07:54:55;8.00;90.90
360;DHT22;168;48.872;9.226;2024-02-23T07:57:22;8.00;90.60
360;DHT22;168;48.872;9.226;2024-02-23T07:59:49;8.10;90.30
360;DHT22;168;48.872;9.226;2024-02-23T08:02:17;8.00;90.60
360;DHT22;168;48.872;9.226;2024-02-23T08:04:44;8.10;90.00
360;DHT22;168;48.872;9.226;2024-02-23T08:07:13;8.10;90.30
360;DHT22;168;48.872;9.226;2024-02-23T08:09:42;8.10;89.90
360;DHT22;168;48.872;9.226;2024-02-23T08:12:10;8.00;90.10
360;DHT22;168;48.872;9.226;2024-02-23T08:14:39;8.00;89.20
360;DHT22;168;48.872;9.226;2024-02-23T08:17:07;8.00;89.40
360;DHT22;168;48.872;9.226;2024-02-23T08:19:34;8.00;89.50
360;DHT22;168;48.872;9.226;2024-02-23T08:22:01;7.90;88.90
360;DHT22;168;48.872;9.226;2024-02-23T08:24:29;7.90;88.80
360;DHT22;168;48.872;9.226;2024-02-23T08:26:57;7.90;89.10
360;DHT22;168;48.872;9.226;2024-02-23T08:29:25;8.00;89.00
360;DHT22;168;48.872;9.226;2024-02-23T08:31:53;7.80;89.30
360;DHT22;168;48.872;9.226;2024-02-23T08:34:20;7.80;90.00
360;DHT22;168;48.872;9.226;2024-02-23T08:36:47;7.70;90.80
360;DHT22;168;48.872;9.226;2024-02-23T08:39:15;7.70;90.70
360;DHT22;168;48.872;9.226;2024-02-23T08:41:42;7.80;90.50
360;DHT22;168;48.872;9.226;2024-02-23T08:44:11;7.90;90.30
360;DHT22;168;48.872;9.226;2024-02-23T08:46:38;7.90;90.20
360;DHT22;168;48.872;9.226;2024-02-23T08:49:06;7.90;89.60
360;DHT22;168;48.872;9.226;2024-02-23T08:51:33;7.90;89.20
360;DHT22;168;48.872;9.226;2024-02-23T08:54:00;7.90;89.70
360;DHT22;168;48.872;9.226;2024-02-23T08:56:30;7.80;90.40
360;DHT22;168;48.872;9.226;2024-02-23T08:58:58;7.80;90.20
360;DHT22;168;48.872;9.226;2024-02-23T09:01:26;7.90;90.40
360;DHT22;168;48.872;9.226;2024-02-23T09:03:54;8.00;89.70
360;DHT22;168;48.872;9.226;2024-02-23T09:06:22;8.10;89.80
360;DHT22;168;48.872;9.226;2024-02-23T09:08:49;8.20;88.70
360;DHT22;168;48.872;9.226;2024-02-23T09:11:16;8.30;87.00
360;DHT22;168;48.872;9.226;2024-02-23T09:13:43;8.30;87.80
360;DHT22;168;48.872;9.226;2024-02-23T09:16:11;8.30;88.20
360;DHT22;168;48.872;9.226;2024-02-23T09:18:39;8.40;86.80
360;DHT22;168;48.872;9.226;2024-02-23T09:21:08;8.50;85.80
360;DHT22;168;48.872;9.226;2024-02-23T09:23:35;8.50;85.50
360;DHT22;168;48.872;9.226;2024-02-23T09:26:08;8.50;83.90
360;DHT22;168;48.872;9.226;2024-02-23T09:28:36;8.40;84.70
360;DHT22;168;48.872;9.226;2024-02-23T09:31:03;8.30;84.20
360;DHT22;168;48.872;9.226;2024-02-23T09:33:31;8.40;83.60
360;DHT22;168;48.872;9.226;2024-02-23T09:36:00;8.40;83.20
360;DHT22;168;48.872;9.226;2024-02-23T09:38:27;8.30;83.60
360;DHT22;168;48.872;9.226;2024-02-23T09:40:55;8.30;83.60
360;DHT22;168;48.872;9.226;2024-02-23T09:43:22;8.40;82.80
360;DHT22;168;48.872;9.226;2024-02-23T09:45:51;8.40;83.40
360;DHT22;168;48.872;9.226;2024-02-23T09:48:19;8.40;83.40
360;DHT22;168;48.872;9.226;2024-02-23T09:50:48;8.40;83.60
360;DHT22;168;48.872;9.226;2024-02-23T09:53:19;8.40;83.40
360;DHT22;168;48.872;9.226;2024-02-23T09:55:48;8.50;82.80
360;DHT22;168;48.872;9.226;2024-02-23T09:58:17;8.70;82.70
360;DHT22;168;48.872;9.226;2024-02-23T10:00:45;8.80;81.60
360;DHT22;168;48.872;9.226;2024-02-23T10:03:12;8.80;80.60
360;DHT22;168;48.872;9.226;2024-02-23T10:05:39;8.80;80.70
360;DHT22;168;48.872;9.226;2024-02-23T10:08:07;8.80;80.70
360;DHT22;168;48.872;9.226;2024-02-23T10:10:35;9.00;80.40
360;DHT22;168;48.872;9.226;2024-02-23T10:13:04;9.20;77.60
360;DHT22;168;48.872;9.226;2024-02-23T10:15:31;9.40;77.90
360;DHT22;168;48.872;9.226;2024-02-23T10:17:59;9.50;77.80
360;DHT22;168;48.872;9.226;2024-02-23T10:20:26;9.70;78.40
360;DHT22;168;48.872;9.226;2024-02-23T10:22:54;9.90;78.30
360;DHT22;168;48.872;9.226;2024-02-23T10:25:22;10.00;76.30
360;DHT22;168;48.872;9.226;2024-02-23T10:27:51;10.20;75.80
360;DHT22;168;48.872;9.226;2024-02-23T10:30:18;10.30;76.00
360;DHT22;168;48.872;9.226;2024-02-23T10:32:46;10.30;75.80
360;DHT22;168;48.872;9.226;2024-02-23T10:35:14;10.40;75.60
360;DHT22;168;48.872;9.226;2024-02-23T10:37:43;10.40;75.20
360;DHT22;168;48.872;9.226;2024-02-23T10:40:12;10.50;76.40
360;DHT22;168;48.872;9.226;2024-02-23T10:42:41;10.70;75.40
360;DHT22;168;48.872;9.226;2024-02-23T10:45:12;10.80;74.60
360;DHT22;168;48.872;9.226;2024-02-23T10:47:39;10.90;73.30
360;DHT22;168;48.872;9.226;2024-02-23T10:50:07;11.00;72.40
360;DHT22;168;48.872;9.226;2024-02-23T10:52:35;10.90;72.50
360;DHT22;168;48.872;9.226;2024-02-23T10:55:03;10.90;74.10
360;DHT22;168;48.872;9.226;2024-02-23T10:57:31;11.10;72.70
360;DHT22;168;48.872;9.226;2024-02-23T10:59:59;11.10;72.80
360;DHT22;168;48.872;9.226;2024-02-23T11:02:29;11.00;72.30
360;DHT22;168;48.872;9.226;2024-02-23T11:04:59;11.10;72.60
360;DHT22;168;48.872;9.226;2024-02-23T11:07:29;11.10;72.50
360;DHT22;168;48.872;9.226;2024-02-23T11:09:59;11.10;72.80
360;DHT22;168;48.872;9.226;2024-02-23T11:12:29;11.10;72.40
360;DHT22;168;48.872;9.226;2024-02-23T11:14:57;11.20;73.00
360;DHT22;168;48.872;9.226;2024-02-23T11:17:28;11.10;71.80
360;DHT22;168;48.872;9.226;2024-02-23T11:19:56;11.20;71.20
360;DHT22;168;48.872;9.226;2024-02-23T11:22:24;11.20;72.40
360;DHT22;168;48.872;9.226;2024-02-23T11:24:53;11.40;72.00
360;DHT22;168;48.872;9.226;2024-02-23T11:27:20;11.40;70.90
360;DHT22;168;48.872;9.226;2024-02-23T11:30:02;11.40;70.10
360;DHT22;168;48.872;9.226;2024-02-23T11:32:46;11.30;71.20
360;DHT22;168;48.872;9.226;2024-02-23T11:35:20;11.40;71.00
360;DHT22;168;48.872;9.226;2024-02-23T11:37:53;11.60;70.60
360;DHT22;168;48.872;9.226;2024-02-23T11:40:25;11.70;70.50
360;DHT22;168;48.872;9.226;2024-02-23T11:42:54;11.80;70.10
360;DHT22;168;48.872;9.226;2024-02-23T11:45:21;12.00;70.50
360;DHT22;168;48.872;9.226;2024-02-23T11:47:50;12.10;70.50
360;DHT22;168;48.872;9.226;2024-02-23T11:50:18;12.10;70.40
360;DHT22;168;48.872;9.226;2024-02-23T11:52:47;12.30;69.20
360;DHT22;168;48.872;9.226;2024-02-23T11:55:18;12.30;69.70
360;DHT22;168;48.872;9.226;2024-02-23T11:57:48;12.50;68.40
360;DHT22;168;48.872;9.226;2024-02-23T12:00:16;12.40;69.00
360;DHT22;168;48.872;9.226;2024-02-23T12:02:43;12.50;68.30
360;DHT22;168;48.872;9.226;2024-02-23T12:05:13;12.40;69.00
360;DHT22;168;48.872;9.226;2024-02-23T12:07:41;12.40;68.60
360;DHT22;168;48.872;9.226;2024-02-23T12:10:09;12.40;69.10
360;DHT22;168;48.872;9.226;2024-02-23T12:12:37;12.40;69.40
360;DHT22;168;48.872;9.226;2024-02-23T12:15:06;12.40;69.30
360;DHT22;168;48.872;9.226;2024-02-23T12:17:36;12.50;68.60
360;DHT22;168;48.872;9.226;2024-02-23T12:20:04;12.60;68.40
360;DHT22;168;48.872;9.226;2024-02-23T12:22:35;12.50;68.00
360;DHT22;168;48.872;9.226;2024-02-23T12:25:03;12.40;68.30
360;DHT22;168;48.872;9.226;2024-02-23T12:27:31;12.40;68.70
360;DHT22;168;48.872;9.226;2024-02-23T12:29:58;12.40;67.60
360;DHT22;168;48.872;9.226;2024-02-23T12:32:26;12.30;68.80
360;DHT22;168;48.872;9.226;2024-02-23T12:34:53;12.20;68.70
360;DHT22;168;48.872;9.226;2024-02-23T12:37:21;12.10;68.30
360;DHT22;168;48.872;9.226;2024-02-23T12:39:50;12.20;68.00
360;DHT22;168;48.872;9.226;2024-02-23T12:42:18;12.10;68.20
360;DHT22;168;48.872;9.226;2024-02-23T12:44:45;12.20;68.50
360;DHT22;168;48.872;9.226;2024-02-23T12:47:19;12.40;67.40
360;DHT22;168;48.872;9.226;2024-02-23T12:49:49;12.30;68.20
360;DHT22;168;48.872;9.226;2024-02-23T12:52:16;12.30;67.60
360;DHT22;168;48.872;9.226;2024-02-23T12:54:43;12.30;68.70
360;DHT22;168;48.872;9.226;2024-02-23T12:57:13;12.30;67.30
360;DHT22;168;48.872;9.226;2024-02-23T12:59:41;12.30;68.50
360;DHT22;168;48.872;9.226;2024-02-23T13:02:08;12.30;68.80
360;DHT22;168;48.872;9.226;2024-02-23T13:04:37;12.30;68.20
360;DHT22;168;48.872;9.226;2024-02-23T13:07:04;12.40;67.40
360;DHT22;168;48.872;9.226;2024-02-23T13:09:32;12.30;67.10
360;DHT22;168;48.872;9.226;2024-02-23T13:11:59;12.20;67.20
360;DHT22;168;48.872;9.226;2024-02-23T13:14:28;12.30;67.20
360;DHT22;168;48.872;9.226;2024-02-23T13:16:55;12.30;67.80
360;DHT22;168;48.872;9.226;2024-02-23T13:19:22;12.40;67.00
360;DHT22;168;48.872;9.226;2024-02-23T13:21:50;12.40;66.70
360;DHT22;168;48.872;9.226;2024-02-23T13:24:17;12.40;66.60
360;DHT22;168;48.872;9.226;2024-02-23T13:26:44;12.30;66.60
360;DHT22;168;48.872;9.226;2024-02-23T13:29:12;12.30;67.30
360;DHT22;168;48.872;9.226;2024-02-23T13:31:40;12.40;66.50
360;DHT22;168;48.872;9.226;2024-02-23T13:34:08;12.40;67.10
360;DHT22;168;48.872;9.226;2024-02-23T13:36:41;12.40;67.80
360;DHT22;168;48.872;9.226;2024-02-23T13:39:09;12.40;67.80
360;DHT22;168;48.872;9.226;2024-02-23T13:41:36;12.50;68.90
360;DHT22;168;48.872;9.226;2024-02-23T13:44:04;12.40;68.60
360;DHT22;168;48.872;9.226;2024-02-23T13:46:31;12.30;69.10
360;DHT22;168;48.872;9.226;2024-02-23T13:49:04;12.30;68.70
360;DHT22;168;48.872;9.226;2024-02-23T13:51:32;12.30;69.00
360;DHT22;168;48.872;9.226;2024-02-23T13:54:00;12.40;68.50
360;DHT22;168;48.872;9.226;2024-02-23T13:56:29;12.50;68.50
360;DHT22;168;48.872;9.226;2024-02-23T13:58:56;12.60;68.90
360;DHT22;168;48.872;9.226;2024-02-23T14:01:23;12.60;68.90
360;DHT22;168;48.872;9.226;2024-02-23T14:03:51;12.60;67.10
360;DHT22;168;48.872;9.226;2024-02-23T14:06:19;12.60;66.40
360;DHT22;168;48.872;9.226;2024-02-23T14:08:47;12.50;66.80
360;DHT22;168;48.872;9.226;2024-02-23T14:11:14;12.50;67.20
360;DHT22;168;48.872;9.226;2024-02-23T14:13:41;12.50;68.80
360;DHT22;168;48.872;9.226;2024-02-23T14:16:10;12.50;69.40
360;DHT22;168;48.872;9.226;2024-02-23T14:18:37;12.60;69.00
360;DHT22;168;48.872;9.226;2024-02-23T14:21:08;12.60;69.40
360;DHT22;168;48.872;9.226;2024-02-23T14:23:37;12.70;69.30
360;DHT22;168;48.872;9.226;2024-02-23T14:26:05;12.60;68.90
360;DHT22;168;48.872;9.226;2024-02-23T14:28:33;12.70;69.40
360;DHT22;168;48.872;9.226;2024-02-23T14:31:00;12.70;68.70
360;DHT22;168;48.872;9.226;2024-02-23T14:33:27;12.60;69.50
360;DHT22;168;48.872;9.226;2024-02-23T14:35:55;12.70;69.10
360;DHT22;168;48.872;9.226;2024-02-23T14:38:22;12.70;69.30
360;DHT22;168;48.872;9.226;2024-02-23T14:40:51;12.80;69.00
360;DHT22;168;48.872;9.226;2024-02-23T14:43:18;12.70;68.90
360;DHT22;168;48.872;9.226;2024-02-23T14:45:46;12.70;68.80
360;DHT22;168;48.872;9.226;2024-02-23T14:48:14;12.60;68.80
360;DHT22;168;48.872;9.226;2024-02-23T14:50:41;12.50;69.20
360;DHT22;168;48.872;9.226;2024-02-23T14:53:08;12.50;69.70
360;DHT22;168;48.872;9.226;2024-02-23T14:55:37;12.40;69.20
360;DHT22;168;48.872;9.226;2024-02-23T14:58:06;12.30;69.70
360;DHT22;168;48.872;9.226;2024-02-23T15:00:33;12.20;70.10
360;DHT22;168;48.872;9.226;2024-02-23T15:03:01;12.10;70.70
360;DHT22;168;48.872;9.226;2024-02-23T15:05:28;12.00;71.50
360;DHT22;168;48.872;9.226;2024-02-23T15:07:56;12.10;71.30
360;DHT22;168;48.872;9.226;2024-02-23T15:10:23;12.10;71.40
360;DHT22;168;48.872;9.226;2024-02-23T15:12:50;12.10;72.20
360;DHT22;168;48.872;9.226;2024-02-23T15:15:19;12.20;71.40
360;DHT22;168;48.872;9.226;2024-02-23T15:17:47;12.20;70.70
360;DHT22;168;48.872;9.226;2024-02-23T15:20:15;12.10;71.90
360;DHT22;168;48.872;9.226;2024-02-23T15:22:42;12.20;70.60
360;DHT22;168;48.872;9.226;2024-02-23T15:25:12;12.10;70.90
360;DHT22;168;48.872;9.226;2024-02-23T15:27:41;12.10;70.80
360;DHT22;168;48.872;9.226;2024-02-23T15:30:09;12.10;69.30
360;DHT22;168;48.872;9.226;2024-02-23T15:32:38;12.10;69.20
360;DHT22;168;48.872;9.226;2024-02-23T15:35:06;11.90;69.30
360;DHT22;168;48.872;9.226;2024-02-23T15:37:33;11.70;69.90
360;DHT22;168;48.872;9.226;2024-02-23T15:40:01;11.70;68.90
360;DHT22;168;48.872;9.226;2024-02-23T15:42:30;11.50;69.20
360;DHT22;168;48.872;9.226;2024-02-23T15:44:57;11.30;69.80
360;DHT22;168;48.872;9.226;2024-02-23T15:47:24;11.30;70.80
360;DHT22;168;48.872;9.226;2024-02-23T15:49:53;11.20;70.80
360;DHT22;168;48.872;9.226;2024-02-23T15:52:20;11.20;70.90
360;DHT22;168;48.872;9.226;2024-02-23T15:54:48;11.30;70.20
360;DHT22;168;48.872;9.226;2024-02-23T15:57:15;11.30;70.20
360;DHT22;168;48.872;9.226;2024-02-23T15:59:42;11.30;70.20
360;DHT22;168;48.872;9.226;2024-02-23T16:02:10;11.20;70.30
360;DHT22;168;48.872;9.226;2024-02-23T16:04:37;11.20;71.60
360;DHT22;168;48.872;9.226;2024-02-23T16:07:06;11.20;72.40
360;DHT22;168;48.872;9.226;2024-02-23T16:09:33;11.40;73.00
360;DHT22;168;48.872;9.226;2024-02-23T16:12:00;11.60;73.10
360;DHT22;168;48.872;9.226;2024-02-23T16:14:28;11.70;73.20
360;DHT22;168;48.872;9.226;2024-02-23T16:16:55;11.80;73.80
360;DHT22;168;48.872;9.226;2024-02-23T16:19:22;11.90;73.00
360;DHT22;168;48.872;9.226;2024-02-23T16:21:50;11.60;73.20
360;DHT22;168;48.872;9.226;2024-02-23T16:24:18;11.50;73.70
360;DHT22;168;48.872;9.226;2024-02-23T16:26:46;11.30;75.50
360;DHT22;168;48.872;9.226;2024-02-23T16:29:13;11.20;75.30
360;DHT22;168;48.872;9.226;2024-02-23T16:31:40;11.20;75.10
360;DHT22;168;48.872;9.226;2024-02-23T16:34:08;11.10;76.20
360;DHT22;168;48.872;9.226;2024-02-23T16:36:35;11.20;75.60
360;DHT22;168;48.872;9.226;2024-02-23T16:39:02;11.10;75.20
360;DHT22;168;48.872;9.226;2024-02-23T16:41:35;11.10;74.90
360;DHT22;168;48.872;9.226;2024-02-23T16:44:03;11.00;74.10
360;DHT22;168;48.872;9.226;2024-02-23T16:46:32;10.80;75.50
360;DHT22;168;48.872;9.226;2024-02-23T16:48:59;10.60;76.50